sensor_id;sensor_type;location;lat;lon;timestamp;pressure;altitude;pressure_sealevel;temperature;humidity
37778;BME280;23615;51.506;7.678;2022-07-22T00:01:54;100534.50;;;16.75;100.00
37778;BME280;23615;51.506;7.678;2022-07-22T00:04:19;100528.19;;;16.69;100.00
37778;BME280;23615;51.506;7.678;2022-07-22T00:06:44;100528.97;;;16.65;100.00
37778;BME280;23615;51.506;7.678;2022-07-22T00:09:09;100527.25;;;16.80;100.00
37778;BME280;23615;51.506;7.678;2022-07-22T00:11:35;100531.88;;;16.85;100.00
37778;BME280;23615;51.506;7.678;2022-07-22T00:14:00;100527.44;;;16.96;100.00
37778;BME280;23615;51.506;7.678;2022-07-22T00:16:25;100535.03;;;16.99;100.00
37778;BME280;23615;51.506;7.678;2022-07-22T00:18:51;100530.66;;;16.93;100.00
37778;BME280;23615;51.506;7.678;2022-07-22T00:21:16;100531.47;;;16.93;100.00
37778;BME280;23615;51.506;7.678;2022-07-22T00:23:42;100529.16;;;16.80;100.00
37778;BME280;23615;51.506;7.678;2022-07-22T00:26:07;100525.69;;;16.84;100.00
37778;BME280;23615;51.506;7.678;2022-07-22T00:28:32;100532.34;;;16.77;100.00
37778;BME280;23615;51.506;7.678;2022-07-22T00:30:58;100531.25;;;16.56;100.00
37778;BME280;23615;51.506;7.678;2022-07-22T00:33:23;100530.31;;;16.45;100.00
37778;BME280;23615;51.506;7.678;2022-07-22T00:35:49;100529.22;;;16.63;100.00
37778;BME280;23615;51.506;7.678;2022-07-22T00:38:14;100534.50;;;16.58;100.00
37778;BME280;23615;51.506;7.678;2022-07-22T00:40:39;100534.25;;;16.60;100.00
37778;BME280;23615;51.506;7.678;2022-07-22T00:43:05;100526.16;;;16.60;100.00
37778;BME280;23615;51.506;7.678;2022-07-22T00:45:30;100530.00;;;16.86;100.00
37778;BME280;23615;51.506;7.678;2022-07-22T00:47:55;100534.41;;;16.70;100.00
37778;BME280;23615;51.506;7.678;2022-07-22T00:50:21;100529.59;;;16.72;100.00
37778;BME280;23615;51.506;7.678;2022-07-22T00:52:49;100522.00;;;16.91;100.00
37778;BME280;23615;51.506;7.678;2022-07-22T00:55:14;100526.84;;;16.94;100.00
37778;BME280;23615;51.506;7.678;2022-07-22T00:57:40;100530.13;;;16.96;99.84
37778;BME280;23615;51.506;7.678;2022-07-22T01:00:09;100533.53;;;16.86;100.00
37778;BME280;23615;51.506;7.678;2022-07-22T01:02:35;100527.94;;;16.93;99.82
37778;BME280;23615;51.506;7.678;2022-07-22T01:05:01;100524.94;;;16.89;99.27
37778;BME280;23615;51.506;7.678;2022-07-22T01:07:26;100527.59;;;16.84;99.28
37778;BME280;23615;51.506;7.678;2022-07-22T01:09:51;100524.69;;;16.69;99.64
37778;BME280;23615;51.506;7.678;2022-07-22T01:12:17;100531.91;;;16.63;100.00
37778;BME280;23615;51.506;7.678;2022-07-22T01:14:42;100538.28;;;16.79;99.71
37778;BME280;23615;51.506;7.678;2022-07-22T01:17:08;100537.09;;;16.70;99.89
37778;BME280;23615;51.506;7.678;2022-07-22T01:19:35;100533.84;;;16.68;99.21
37778;BME280;23615;51.506;7.678;2022-07-22T01:22:01;100526.69;;;16.78;98.35
37778;BME280;23615;51.506;7.678;2022-07-22T01:24:26;100534.22;;;16.76;98.46
37778;BME280;23615;51.506;7.678;2022-07-22T01:26:51;100534.41;;;16.70;98.40
37778;BME280;23615;51.506;7.678;2022-07-22T01:29:16;100533.69;;;16.58;98.58
37778;BME280;23615;51.506;7.678;2022-07-22T01:31:42;100534.44;;;16.53;98.89
37778;BME280;23615;51.506;7.678;2022-07-22T01:34:07;100528.72;;;16.50;98.55
37778;BME280;23615;51.506;7.678;2022-07-22T01:36:32;100532.00;;;16.52;99.12
37778;BME280;23615;51.506;7.678;2022-07-22T01:38:58;100530.56;;;16.44;99.52
37778;BME280;23615;51.506;7.678;2022-07-22T01:41:23;100530.69;;;16.54;99.65
37778;BME280;23615;51.506;7.678;2022-07-22T01:43:48;100540.63;;;16.70;98.58
37778;BME280;23615;51.506;7.678;2022-07-22T01:46:14;100539.25;;;16.51;98.41
37778;BME280;23615;51.506;7.678;2022-07-22T01:48:40;100543.34;;;16.54;98.74
37778;BME280;23615;51.506;7.678;2022-07-22T01:51:05;100536.28;;;16.48;98.50
37778;BME280;23615;51.506;7.678;2022-07-22T01:53:30;100545.72;;;16.50;98.60
37778;BME280;23615;51.506;7.678;2022-07-22T01:55:56;100540.31;;;16.50;98.51
37778;BME280;23615;51.506;7.678;2022-07-22T01:58:21;100528.41;;;16.24;98.25
37778;BME280;23615;51.506;7.678;2022-07-22T02:00:47;100536.69;;;16.39;98.46
37778;BME280;23615;51.506;7.678;2022-07-22T02:03:12;100536.13;;;16.37;98.17
37778;BME280;23615;51.506;7.678;2022-07-22T02:05:38;100535.22;;;16.32;98.20
37778;BME280;23615;51.506;7.678;2022-07-22T02:08:08;100542.38;;;16.43;97.93
37778;BME280;23615;51.506;7.678;2022-07-22T02:10:34;100542.06;;;16.39;97.43
37778;BME280;23615;51.506;7.678;2022-07-22T02:13:00;100533.59;;;16.31;97.82
37778;BME280;23615;51.506;7.678;2022-07-22T02:15:26;100536.13;;;16.21;97.67
37778;BME280;23615;51.506;7.678;2022-07-22T02:17:53;100532.28;;;16.33;97.81
37778;BME280;23615;51.506;7.678;2022-07-22T02:20:18;100548.13;;;16.30;98.25
37778;BME280;23615;51.506;7.678;2022-07-22T02:22:43;100539.97;;;16.25;98.39
37778;BME280;23615;51.506;7.678;2022-07-22T02:25:09;100545.94;;;16.27;98.36
37778;BME280;23615;51.506;7.678;2022-07-22T02:27:34;100551.25;;;16.22;98.55
37778;BME280;23615;51.506;7.678;2022-07-22T02:30:00;100547.91;;;16.15;98.98
37778;BME280;23615;51.506;7.678;2022-07-22T02:32:25;100547.44;;;16.18;99.11
37778;BME280;23615;51.506;7.678;2022-07-22T02:34:51;100542.53;;;16.15;99.25
37778;BME280;23615;51.506;7.678;2022-07-22T02:37:16;100548.97;;;16.14;98.93
37778;BME280;23615;51.506;7.678;2022-07-22T02:39:41;100544.09;;;16.11;99.45
37778;BME280;23615;51.506;7.678;2022-07-22T02:42:07;100539.03;;;16.14;99.50
37778;BME280;23615;51.506;7.678;2022-07-22T02:44:32;100545.38;;;16.25;99.01
37778;BME280;23615;51.506;7.678;2022-07-22T02:46:57;100544.31;;;16.26;98.42
37778;BME280;23615;51.506;7.678;2022-07-22T02:49:23;100533.06;;;16.29;98.64
37778;BME280;23615;51.506;7.678;2022-07-22T02:51:48;100538.94;;;16.26;98.32
37778;BME280;23615;51.506;7.678;2022-07-22T02:54:13;100536.56;;;16.29;98.72
37778;BME280;23615;51.506;7.678;2022-07-22T02:56:39;100538.50;;;16.34;98.18
37778;BME280;23615;51.506;7.678;2022-07-22T02:59:04;100531.34;;;16.23;98.92
37778;BME280;23615;51.506;7.678;2022-07-22T03:01:29;100536.09;;;16.16;99.37
37778;BME280;23615;51.506;7.678;2022-07-22T03:03:54;100531.28;;;16.18;99.59
37778;BME280;23615;51.506;7.678;2022-07-22T03:06:20;100537.97;;;16.15;99.15
37778;BME280;23615;51.506;7.678;2022-07-22T03:08:46;100541.13;;;16.12;98.94
37778;BME280;23615;51.506;7.678;2022-07-22T03:11:11;100537.09;;;16.09;99.46
37778;BME280;23615;51.506;7.678;2022-07-22T03:13:36;100539.53;;;16.11;99.66
37778;BME280;23615;51.506;7.678;2022-07-22T03:16:02;100542.63;;;16.03;99.92
37778;BME280;23615;51.506;7.678;2022-07-22T03:18:27;100544.91;;;16.11;99.73
37778;BME280;23615;51.506;7.678;2022-07-22T03:20:52;100543.28;;;16.10;99.26
37778;BME280;23615;51.506;7.678;2022-07-22T03:23:18;100537.09;;;16.09;99.07
37778;BME280;23615;51.506;7.678;2022-07-22T03:25:43;100548.72;;;16.15;98.88
37778;BME280;23615;51.506;7.678;2022-07-22T03:28:08;100547.19;;;16.19;99.12
37778;BME280;23615;51.506;7.678;2022-07-22T03:30:34;100549.38;;;16.22;99.16
37778;BME280;23615;51.506;7.678;2022-07-22T03:32:59;100546.75;;;16.27;98.82
37778;BME280;23615;51.506;7.678;2022-07-22T03:35:24;100549.44;;;16.27;98.15
37778;BME280;23615;51.506;7.678;2022-07-22T03:37:50;100550.31;;;16.33;97.99
37778;BME280;23615;51.506;7.678;2022-07-22T03:40:15;100546.91;;;16.37;97.59
37778;BME280;23615;51.506;7.678;2022-07-22T03:42:41;100553.84;;;16.33;97.75
37778;BME280;23615;51.506;7.678;2022-07-22T03:45:07;100548.63;;;16.27;98.20
37778;BME280;23615;51.506;7.678;2022-07-22T03:47:32;100559.72;;;16.30;98.08
37778;BME280;23615;51.506;7.678;2022-07-22T03:49:57;100556.72;;;16.27;98.19
37778;BME280;23615;51.506;7.678;2022-07-22T03:52:24;100552.28;;;16.21;98.31
37778;BME280;23615;51.506;7.678;2022-07-22T03:54:49;100559.84;;;16.19;98.52
37778;BME280;23615;51.506;7.678;2022-07-22T03:57:14;100557.56;;;16.11;98.92
37778;BME280;23615;51.506;7.678;2022-07-22T03:59:39;100560.31;;;16.16;98.88
37778;BME280;23615;51.506;7.678;2022-07-22T04:02:05;100560.72;;;16.24;98.51
37778;BME280;23615;51.506;7.678;2022-07-22T04:04:30;100557.19;;;16.24;98.05
37778;BME280;23615;51.506;7.678;2022-07-22T04:06:56;100561.75;;;16.23;98.14
37778;BME280;23615;51.506;7.678;2022-07-22T04:09:21;100565.28;;;16.24;98.23
37778;BME280;23615;51.506;7.678;2022-07-22T04:11:47;100561.47;;;16.20;98.71
37778;BME280;23615;51.506;7.678;2022-07-22T04:14:12;100553.88;;;16.17;98.33
37778;BME280;23615;51.506;7.678;2022-07-22T04:16:38;100557.03;;;16.14;98.92
37778;BME280;23615;51.506;7.678;2022-07-22T04:19:03;100553.06;;;16.16;98.37
37778;BME280;23615;51.506;7.678;2022-07-22T04:21:29;100555.16;;;16.14;98.76
37778;BME280;23615;51.506;7.678;2022-07-22T04:23:55;100553.38;;;16.03;99.01
37778;BME280;23615;51.506;7.678;2022-07-22T04:26:21;100548.97;;;16.14;99.44
37778;BME280;23615;51.506;7.678;2022-07-22T04:28:46;100548.41;;;16.12;99.09
37778;BME280;23615;51.506;7.678;2022-07-22T04:31:11;100550.03;;;16.13;98.94
37778;BME280;23615;51.506;7.678;2022-07-22T04:33:37;100548.16;;;16.13;98.42
37778;BME280;23615;51.506;7.678;2022-07-22T04:36:02;100550.31;;;16.11;98.60
37778;BME280;23615;51.506;7.678;2022-07-22T04:38:28;100551.25;;;16.22;98.25
37778;BME280;23615;51.506;7.678;2022-07-22T04:40:53;100555.72;;;16.33;97.73
37778;BME280;23615;51.506;7.678;2022-07-22T04:43:18;100556.97;;;16.25;97.93
37778;BME280;23615;51.506;7.678;2022-07-22T04:45:44;100558.88;;;16.30;97.78
37778;BME280;23615;51.506;7.678;2022-07-22T04:48:09;100562.97;;;16.32;96.56
37778;BME280;23615;51.506;7.678;2022-07-22T04:50:38;100559.88;;;16.24;97.67
37778;BME280;23615;51.506;7.678;2022-07-22T04:53:03;100555.00;;;16.21;98.49
37778;BME280;23615;51.506;7.678;2022-07-22T04:55:28;100556.00;;;16.15;98.51
37778;BME280;23615;51.506;7.678;2022-07-22T04:57:54;100557.03;;;16.14;98.59
37778;BME280;23615;51.506;7.678;2022-07-22T05:00:19;100547.00;;;16.26;97.94
37778;BME280;23615;51.506;7.678;2022-07-22T05:02:45;100556.38;;;16.23;97.96
37778;BME280;23615;51.506;7.678;2022-07-22T05:05:10;100551.72;;;16.35;97.54
37778;BME280;23615;51.506;7.678;2022-07-22T05:07:36;100555.00;;;16.21;97.43
37778;BME280;23615;51.506;7.678;2022-07-22T05:10:01;100566.84;;;16.20;97.38
37778;BME280;23615;51.506;7.678;2022-07-22T05:12:26;100567.72;;;16.25;97.64
37778;BME280;23615;51.506;7.678;2022-07-22T05:14:52;100567.56;;;16.15;96.78
37778;BME280;23615;51.506;7.678;2022-07-22T05:17:17;100570.34;;;16.20;96.28
37778;BME280;23615;51.506;7.678;2022-07-22T05:19:42;100570.84;;;16.17;97.31
37778;BME280;23615;51.506;7.678;2022-07-22T05:22:07;100570.81;;;16.34;96.21
37778;BME280;23615;51.506;7.678;2022-07-22T05:24:33;100572.28;;;16.25;96.51
37778;BME280;23615;51.506;7.678;2022-07-22T05:26:58;100563.00;;;16.16;96.37
37778;BME280;23615;51.506;7.678;2022-07-22T05:29:24;100565.75;;;16.21;96.38
37778;BME280;23615;51.506;7.678;2022-07-22T05:31:49;100568.38;;;16.32;96.06
37778;BME280;23615;51.506;7.678;2022-07-22T05:34:14;100566.34;;;16.23;96.06
37778;BME280;23615;51.506;7.678;2022-07-22T05:36:40;100567.53;;;16.32;96.09
37778;BME280;23615;51.506;7.678;2022-07-22T05:39:05;100573.06;;;16.42;95.71
37778;BME280;23615;51.506;7.678;2022-07-22T05:41:30;100563.59;;;16.39;95.66
37778;BME280;23615;51.506;7.678;2022-07-22T05:43:56;100565.75;;;16.37;95.92
37778;BME280;23615;51.506;7.678;2022-07-22T05:46:21;100567.72;;;16.25;96.25
37778;BME280;23615;51.506;7.678;2022-07-22T05:48:46;100563.72;;;16.28;96.67
37778;BME280;23615;51.506;7.678;2022-07-22T05:51:12;100571.06;;;16.32;96.03
37778;BME280;23615;51.506;7.678;2022-07-22T05:53:39;100565.81;;;16.42;95.36
37778;BME280;23615;51.506;7.678;2022-07-22T05:56:04;100571.81;;;16.50;95.28
37778;BME280;23615;51.506;7.678;2022-07-22T05:58:30;100583.50;;;16.55;95.16
37778;BME280;23615;51.506;7.678;2022-07-22T06:00:55;100584.66;;;16.42;94.80
37778;BME280;23615;51.506;7.678;2022-07-22T06:03:21;100577.50;;;16.31;95.59
37778;BME280;23615;51.506;7.678;2022-07-22T06:05:46;100575.88;;;16.30;95.82
37778;BME280;23615;51.506;7.678;2022-07-22T06:08:11;100572.63;;;16.28;96.37
37778;BME280;23615;51.506;7.678;2022-07-22T06:10:37;100574.66;;;16.38;95.46
37778;BME280;23615;51.506;7.678;2022-07-22T06:13:02;100570.66;;;16.24;95.25
37778;BME280;23615;51.506;7.678;2022-07-22T06:15:27;100570.19;;;16.27;95.66
37778;BME280;23615;51.506;7.678;2022-07-22T06:17:53;100574.03;;;16.14;96.06
37778;BME280;23615;51.506;7.678;2022-07-22T06:20:18;100572.16;;;16.15;96.45
37778;BME280;23615;51.506;7.678;2022-07-22T06:22:44;100576.47;;;16.16;97.12
37778;BME280;23615;51.506;7.678;2022-07-22T06:25:09;100578.88;;;16.34;96.75
37778;BME280;23615;51.506;7.678;2022-07-22T06:27:34;100582.28;;;16.07;94.89
37778;BME280;23615;51.506;7.678;2022-07-22T06:30:00;100579.19;;;15.82;94.62
37778;BME280;23615;51.506;7.678;2022-07-22T06:32:25;100585.84;;;15.63;94.47
37778;BME280;23615;51.506;7.678;2022-07-22T06:34:50;100579.59;;;15.46;95.17
37778;BME280;23615;51.506;7.678;2022-07-22T06:37:15;100582.75;;;15.43;95.94
37778;BME280;23615;51.506;7.678;2022-07-22T06:39:41;100582.34;;;15.34;96.64
37778;BME280;23615;51.506;7.678;2022-07-22T06:42:06;100589.69;;;15.39;96.78
37778;BME280;23615;51.506;7.678;2022-07-22T06:44:32;100588.13;;;15.43;96.98
37778;BME280;23615;51.506;7.678;2022-07-22T06:46:57;100586.28;;;15.43;96.92
37778;BME280;23615;51.506;7.678;2022-07-22T06:49:22;100588.72;;;15.45;95.59
37778;BME280;23615;51.506;7.678;2022-07-22T06:51:47;100586.63;;;15.47;96.43
37778;BME280;23615;51.506;7.678;2022-07-22T06:54:13;100585.19;;;15.56;96.26
37778;BME280;23615;51.506;7.678;2022-07-22T06:56:38;100590.06;;;15.59;96.08
37778;BME280;23615;51.506;7.678;2022-07-22T06:59:03;100587.47;;;15.64;94.83
37778;BME280;23615;51.506;7.678;2022-07-22T07:01:29;100588.03;;;15.66;95.58
37778;BME280;23615;51.506;7.678;2022-07-22T07:03:54;100583.56;;;15.71;95.70
37778;BME280;23615;51.506;7.678;2022-07-22T07:06:20;100584.47;;;15.77;95.52
37778;BME280;23615;51.506;7.678;2022-07-22T07:08:45;100578.13;;;15.83;95.21
37778;BME280;23615;51.506;7.678;2022-07-22T07:11:10;100572.63;;;15.95;94.02
37778;BME280;23615;51.506;7.678;2022-07-22T07:13:36;100578.84;;;15.95;93.42
37778;BME280;23615;51.506;7.678;2022-07-22T07:16:01;100575.09;;;15.96;93.13
37778;BME280;23615;51.506;7.678;2022-07-22T07:18:27;100578.84;;;15.95;92.49
37778;BME280;23615;51.506;7.678;2022-07-22T07:20:52;100578.44;;;16.03;91.72
37778;BME280;23615;51.506;7.678;2022-07-22T07:23:17;100577.84;;;15.85;92.52
37778;BME280;23615;51.506;7.678;2022-07-22T07:25:43;100569.94;;;15.95;92.44
37778;BME280;23615;51.506;7.678;2022-07-22T07:28:08;100574.91;;;16.03;93.03
37778;BME280;23615;51.506;7.678;2022-07-22T07:30:34;100569.22;;;15.99;92.68
37778;BME280;23615;51.506;7.678;2022-07-22T07:32:59;100567.25;;;16.12;92.69
37778;BME280;23615;51.506;7.678;2022-07-22T07:35:27;100567.91;;;16.19;92.46
37778;BME280;23615;51.506;7.678;2022-07-22T07:37:53;100574.25;;;16.29;91.18
37778;BME280;23615;51.506;7.678;2022-07-22T07:40:18;100581.69;;;16.22;90.99
37778;BME280;23615;51.506;7.678;2022-07-22T07:42:44;100575.19;;;16.01;90.98
37778;BME280;23615;51.506;7.678;2022-07-22T07:45:10;100582.84;;;16.09;91.12
37778;BME280;23615;51.506;7.678;2022-07-22T07:47:35;100579.19;;;15.99;92.47
37778;BME280;23615;51.506;7.678;2022-07-22T07:50:02;100576.72;;;15.97;91.98
37778;BME280;23615;51.506;7.678;2022-07-22T07:52:28;100576.38;;;15.94;93.55
37778;BME280;23615;51.506;7.678;2022-07-22T07:54:53;100572.97;;;15.98;93.42
37778;BME280;23615;51.506;7.678;2022-07-22T07:57:21;100571.84;;;16.11;92.92
37778;BME280;23615;51.506;7.678;2022-07-22T07:59:47;100572.97;;;16.15;92.01
37778;BME280;23615;51.506;7.678;2022-07-22T08:02:12;100574.13;;;16.19;92.23
37778;BME280;23615;51.506;7.678;2022-07-22T08:04:37;100576.94;;;16.29;92.17
37778;BME280;23615;51.506;7.678;2022-07-22T08:07:04;100571.53;;;16.46;91.30
37778;BME280;23615;51.506;7.678;2022-07-22T08:09:30;100575.34;;;16.50;90.91
37778;BME280;23615;51.506;7.678;2022-07-22T08:11:55;100569.94;;;16.50;91.38
37778;BME280;23615;51.506;7.678;2022-07-22T08:14:21;100564.41;;;16.57;91.36
37778;BME280;23615;51.506;7.678;2022-07-22T08:16:46;100566.69;;;16.65;91.09
37778;BME280;23615;51.506;7.678;2022-07-22T08:19:11;100576.25;;;16.77;90.79
37778;BME280;23615;51.506;7.678;2022-07-22T08:21:36;100563.13;;;16.81;90.59
37778;BME280;23615;51.506;7.678;2022-07-22T08:24:02;100563.72;;;16.88;90.45
37778;BME280;23615;51.506;7.678;2022-07-22T08:26:28;100563.38;;;17.01;89.61
37778;BME280;23615;51.506;7.678;2022-07-22T08:28:53;100567.41;;;17.04;90.19
37778;BME280;23615;51.506;7.678;2022-07-22T08:31:18;100566.47;;;17.15;89.38
37778;BME280;23615;51.506;7.678;2022-07-22T08:33:44;100561.06;;;17.15;89.81
37778;BME280;23615;51.506;7.678;2022-07-22T08:36:09;100569.16;;;17.15;89.91
37778;BME280;23615;51.506;7.678;2022-07-22T08:38:35;100560.00;;;17.16;89.49
37778;BME280;23615;51.506;7.678;2022-07-22T08:41:01;100562.09;;;17.36;89.61
37778;BME280;23615;51.506;7.678;2022-07-22T08:43:29;100564.66;;;17.47;90.56
37778;BME280;23615;51.506;7.678;2022-07-22T08:45:56;100555.53;;;17.53;90.33
37778;BME280;23615;51.506;7.678;2022-07-22T08:48:21;100557.66;;;17.51;90.05
37778;BME280;23615;51.506;7.678;2022-07-22T08:50:47;100555.28;;;17.55;89.52
37778;BME280;23615;51.506;7.678;2022-07-22T08:53:13;100559.72;;;17.66;88.18
37778;BME280;23615;51.506;7.678;2022-07-22T08:55:46;100563.28;;;17.72;87.24
37778;BME280;23615;51.506;7.678;2022-07-22T08:58:12;100562.69;;;17.65;84.15
37778;BME280;23615;51.506;7.678;2022-07-22T09:00:39;100567.16;;;17.59;85.04
37778;BME280;23615;51.506;7.678;2022-07-22T09:03:22;100564.31;;;17.66;85.32
37778;BME280;23615;51.506;7.678;2022-07-22T09:05:51;100564.00;;;17.62;85.29
37778;BME280;23615;51.506;7.678;2022-07-22T09:08:17;100564.59;;;17.69;86.35
37778;BME280;23615;51.506;7.678;2022-07-22T09:10:43;100569.69;;;17.66;86.21
37778;BME280;23615;51.506;7.678;2022-07-22T09:13:09;100572.44;;;17.71;85.18
37778;BME280;23615;51.506;7.678;2022-07-22T09:15:38;100571.31;;;17.67;83.72
37778;BME280;23615;51.506;7.678;2022-07-22T09:18:06;100577.03;;;17.70;84.61
37778;BME280;23615;51.506;7.678;2022-07-22T09:20:32;100575.72;;;17.78;83.44
37778;BME280;23615;51.506;7.678;2022-07-22T09:22:57;100578.91;;;17.70;83.34
37778;BME280;23615;51.506;7.678;2022-07-22T09:25:32;100575.72;;;17.51;84.35
37778;BME280;23615;51.506;7.678;2022-07-22T09:28:19;100575.44;;;17.20;85.67
37778;BME280;23615;51.506;7.678;2022-07-22T09:30:48;100575.16;;;17.22;85.84
37778;BME280;23615;51.506;7.678;2022-07-22T09:33:15;100580.41;;;17.34;84.90
37778;BME280;23615;51.506;7.678;2022-07-22T09:35:41;100569.94;;;17.37;84.24
37778;BME280;23615;51.506;7.678;2022-07-22T09:38:09;100579.91;;;17.37;84.47
37778;BME280;23615;51.506;7.678;2022-07-22T09:40:42;100582.09;;;17.40;84.08
37778;BME280;23615;51.506;7.678;2022-07-22T09:43:10;100570.22;;;17.41;84.33
37778;BME280;23615;51.506;7.678;2022-07-22T09:48:12;100572.78;;;17.52;82.85
37778;BME280;23615;51.506;7.678;2022-07-22T09:50:37;100573.13;;;17.61;83.55
37778;BME280;23615;51.506;7.678;2022-07-22T09:53:03;100576.25;;;17.75;83.09
37778;BME280;23615;51.506;7.678;2022-07-22T09:55:28;100570.13;;;17.84;81.89
37778;BME280;23615;51.506;7.678;2022-07-22T09:57:55;100578.19;;;17.79;81.39
37778;BME280;23615;51.506;7.678;2022-07-22T10:00:24;100579.81;;;17.80;82.58
37778;BME280;23615;51.506;7.678;2022-07-22T10:02:52;100576.13;;;17.91;81.59
37778;BME280;23615;51.506;7.678;2022-07-22T10:05:24;100577.13;;;17.85;80.02
37778;BME280;23615;51.506;7.678;2022-07-22T10:08:06;100572.84;;;17.84;80.94
37778;BME280;23615;51.506;7.678;2022-07-22T10:10:33;100571.00;;;17.95;82.56
37778;BME280;23615;51.506;7.678;2022-07-22T10:13:00;100576.94;;;17.92;81.16
37778;BME280;23615;51.506;7.678;2022-07-22T10:15:27;100573.53;;;18.07;80.85
37778;BME280;23615;51.506;7.678;2022-07-22T10:17:55;100575.47;;;18.16;nan
37778;BME280;23615;51.506;7.678;2022-07-22T10:20:23;100562.41;;;18.03;80.03
37778;BME280;23615;51.506;7.678;2022-07-22T10:22:55;100567.06;;;18.08;79.94
37778;BME280;23615;51.506;7.678;2022-07-22T10:25:23;100566.25;;;18.12;81.00
37778;BME280;23615;51.506;7.678;2022-07-22T10:27:59;100570.91;;;18.22;79.74
37778;BME280;23615;51.506;7.678;2022-07-22T10:33:12;100568.78;;;18.24;79.30
37778;BME280;23615;51.506;7.678;2022-07-22T10:38:10;100574.94;;;18.14;79.57
37778;BME280;23615;51.506;7.678;2022-07-22T10:40:54;100564.03;;;18.04;79.28
37778;BME280;23615;51.506;7.678;2022-07-22T10:43:21;100567.63;;;17.78;80.62
37778;BME280;23615;51.506;7.678;2022-07-22T10:45:56;100569.81;;;17.81;80.73
37778;BME280;23615;51.506;7.678;2022-07-22T10:48:45;100564.38;;;17.76;80.45
37778;BME280;23615;51.506;7.678;2022-07-22T10:51:18;100560.59;;;17.77;80.97
37778;BME280;23615;51.506;7.678;2022-07-22T10:53:45;100550.41;;;17.84;80.93
37778;BME280;23615;51.506;7.678;2022-07-22T10:56:25;100559.38;;;17.94;80.00
37778;BME280;23615;51.506;7.678;2022-07-22T11:01:31;100558.06;;;17.97;79.97
37778;BME280;23615;51.506;7.678;2022-07-22T11:04:12;100548.59;;;17.94;80.38
37778;BME280;23615;51.506;7.678;2022-07-22T11:06:38;100543.88;;;18.12;79.06
37778;BME280;23615;51.506;7.678;2022-07-22T11:09:07;100537.03;;;18.04;79.93
37778;BME280;23615;51.506;7.678;2022-07-22T11:11:39;100540.13;;;18.18;78.88
37778;BME280;23615;51.506;7.678;2022-07-22T11:16:45;100535.09;;;18.37;78.65
37778;BME280;23615;51.506;7.678;2022-07-22T11:19:10;100525.03;;;18.27;77.36
37778;BME280;23615;51.506;7.678;2022-07-22T11:21:36;100524.00;;;18.33;78.15
37778;BME280;23615;51.506;7.678;2022-07-22T11:24:04;100527.25;;;18.40;77.51
37778;BME280;23615;51.506;7.678;2022-07-22T11:26:50;100525.97;;;18.53;78.02
37778;BME280;23615;51.506;7.678;2022-07-22T11:29:30;100529.53;;;18.58;78.05
37778;BME280;23615;51.506;7.678;2022-07-22T11:31:59;100537.13;;;18.61;77.64
37778;BME280;23615;51.506;7.678;2022-07-22T11:34:25;100529.31;;;18.70;77.26
37778;BME280;23615;51.506;7.678;2022-07-22T11:36:52;100541.00;;;18.81;77.73
37778;BME280;23615;51.506;7.678;2022-07-22T11:39:24;100538.34;;;18.96;76.78
37778;BME280;23615;51.506;7.678;2022-07-22T11:41:51;100531.84;;;18.97;75.13
37778;BME280;23615;51.506;7.678;2022-07-22T11:44:21;100538.63;;;19.04;74.95
37778;BME280;23615;51.506;7.678;2022-07-22T11:46:47;100535.91;;;18.99;74.34
37778;BME280;23615;51.506;7.678;2022-07-22T11:49:17;100532.97;;;19.11;74.83
37778;BME280;23615;51.506;7.678;2022-07-22T11:51:43;100526.72;;;19.00;74.67
37778;BME280;23615;51.506;7.678;2022-07-22T11:54:08;100530.25;;;19.06;75.12
37778;BME280;23615;51.506;7.678;2022-07-22T11:56:34;100537.06;;;19.19;75.27
37778;BME280;23615;51.506;7.678;2022-07-22T11:59:01;100535.16;;;19.19;75.06
37778;BME280;23615;51.506;7.678;2022-07-22T12:01:36;100533.78;;;19.22;75.03
37778;BME280;23615;51.506;7.678;2022-07-22T12:04:06;100537.88;;;19.34;74.66
37778;BME280;23615;51.506;7.678;2022-07-22T12:06:34;100528.44;;;19.47;74.07
37778;BME280;23615;51.506;7.678;2022-07-22T12:09:12;100520.84;;;19.44;74.33
37778;BME280;23615;51.506;7.678;2022-07-22T12:11:43;100516.25;;;19.50;75.12
37778;BME280;23615;51.506;7.678;2022-07-22T12:14:11;100513.28;;;19.51;74.72
37778;BME280;23615;51.506;7.678;2022-07-22T12:16:38;100503.81;;;19.49;75.22
37778;BME280;23615;51.506;7.678;2022-07-22T12:19:08;100511.63;;;19.35;73.89
37778;BME280;23615;51.506;7.678;2022-07-22T12:21:36;100508.66;;;19.36;74.33
37778;BME280;23615;51.506;7.678;2022-07-22T12:24:05;100503.78;;;19.43;73.93
37778;BME280;23615;51.506;7.678;2022-07-22T12:29:22;100511.13;;;19.53;73.09
37778;BME280;23615;51.506;7.678;2022-07-22T12:31:52;100501.91;;;19.59;74.10
37778;BME280;23615;51.506;7.678;2022-07-22T12:34:39;100503.00;;;19.63;73.53
37778;BME280;23615;51.506;7.678;2022-07-22T12:40:03;100489.75;;;19.72;73.11
37778;BME280;23615;51.506;7.678;2022-07-22T12:42:35;100487.28;;;19.80;72.11
37778;BME280;23615;51.506;7.678;2022-07-22T12:50:26;100496.50;;;19.59;73.45
37778;BME280;23615;51.506;7.678;2022-07-22T12:52:54;100489.72;;;19.67;73.98
37778;BME280;23615;51.506;7.678;2022-07-22T12:55:20;100482.41;;;19.83;73.96
37778;BME280;23615;51.506;7.678;2022-07-22T12:57:46;100476.41;;;19.96;73.48
37778;BME280;23615;51.506;7.678;2022-07-22T13:00:25;100474.22;;;20.08;72.74
37778;BME280;23615;51.506;7.678;2022-07-22T13:02:52;100480.69;;;20.27;72.46
37778;BME280;23615;51.506;7.678;2022-07-22T13:05:17;100473.91;;;20.25;72.79
37778;BME280;23615;51.506;7.678;2022-07-22T13:07:43;100477.97;;;20.37;72.13
37778;BME280;23615;51.506;7.678;2022-07-22T13:10:10;100475.81;;;20.34;72.30
37778;BME280;23615;51.506;7.678;2022-07-22T13:12:36;100475.22;;;20.42;71.99